createdAt,value
2023-03-26T00:00:11.864Z,92407.00
2023-03-26T00:04:13.045Z,92409.00
2023-03-26T00:08:13.994Z,92397.00
2023-03-26T00:12:14.938Z,92394.00
2023-03-26T00:16:16.092Z,92394.00
2023-03-26T00:20:17.085Z,92394.00
2023-03-26T00:24:18.272Z,92394.00
2023-03-26T00:28:19.395Z,92399.00
2023-03-26T00:32:20.508Z,92390.00
2023-03-26T00:36:21.707Z,92386.00
2023-03-26T00:40:22.781Z,92382.00
2023-03-26T00:44:24.016Z,92380.00
2023-03-26T00:48:34.490Z,92378.00
2023-03-26T00:52:27.345Z,92376.00
2023-03-26T00:56:27.328Z,92370.00
2023-03-26T01:00:28.333Z,92370.00
2023-03-26T01:04:29.461Z,92366.00
2023-03-26T01:08:30.520Z,92372.00
2023-03-26T01:12:31.556Z,92356.00
2023-03-26T01:16:32.717Z,92358.00
2023-03-26T01:20:33.855Z,92362.00
2023-03-26T01:24:35.121Z,92362.00
2023-03-26T01:28:36.451Z,92352.00
2023-03-26T01:32:37.639Z,92356.00
2023-03-26T01:36:38.723Z,92364.00
2023-03-26T01:40:39.803Z,92356.00
2023-03-26T01:44:40.941Z,92349.00
2023-03-26T01:48:42.166Z,92356.00
2023-03-26T01:52:43.409Z,92352.00
2023-03-26T01:56:44.576Z,92360.00
2023-03-26T02:00:45.725Z,92358.00
2023-03-26T02:04:46.872Z,92352.00
2023-03-26T02:08:48.027Z,92352.00
2023-03-26T02:12:49.168Z,92347.00
2023-03-26T02:16:50.345Z,92347.00
2023-03-26T02:20:51.556Z,92345.00
2023-03-26T02:24:52.688Z,92343.00
2023-03-26T02:28:53.925Z,92337.00
2023-03-26T02:32:55.234Z,92312.00
2023-03-26T02:36:56.498Z,92329.00
2023-03-26T02:40:57.714Z,92315.00
2023-03-26T02:44:58.882Z,92333.00
2023-03-26T02:49:00.197Z,92315.00
2023-03-26T02:53:01.417Z,92317.00
2023-03-26T02:57:02.717Z,92302.00
2023-03-26T03:01:03.959Z,92290.00
2023-03-26T03:05:05.219Z,92261.00
2023-03-26T03:09:06.343Z,92268.00
2023-03-26T03:13:07.586Z,92263.00
2023-03-26T03:17:08.963Z,92255.00
2023-03-26T03:21:10.005Z,92251.00
2023-03-26T03:25:11.115Z,92251.00
2023-03-26T03:29:12.159Z,92237.00
2023-03-26T03:33:13.171Z,92233.00
2023-03-26T03:37:14.214Z,92223.00
2023-03-26T03:41:15.241Z,92219.00
2023-03-26T03:45:16.286Z,92223.00
2023-03-26T03:49:17.453Z,92210.00
2023-03-26T03:53:18.592Z,92221.00
2023-03-26T03:57:20.179Z,92221.00
2023-03-26T04:01:20.840Z,92216.00
2023-03-26T04:05:21.915Z,92202.00
2023-03-26T04:09:23.174Z,92192.00
2023-03-26T04:13:23.978Z,92186.00
2023-03-26T04:17:25.043Z,92178.00
2023-03-26T04:21:25.994Z,92166.00
2023-03-26T04:25:27.030Z,92153.00
2023-03-26T04:29:28.361Z,92141.00
2023-03-26T04:33:29.709Z,92141.00
2023-03-26T04:37:30.850Z,92139.00
2023-03-26T04:41:32.041Z,92141.00
2023-03-26T04:45:33.210Z,92143.00
2023-03-26T04:49:34.347Z,92143.00
2023-03-26T04:53:35.538Z,92133.00
2023-03-26T04:57:36.846Z,92137.00
2023-03-26T05:01:38.229Z,92135.00
2023-03-26T05:05:39.238Z,92143.00
2023-03-26T05:09:40.326Z,92139.00
2023-03-26T05:13:41.382Z,92133.00
2023-03-26T05:17:42.429Z,92143.00
2023-03-26T05:21:43.287Z,92133.00
2023-03-26T05:25:44.250Z,92127.00
2023-03-26T05:29:45.253Z,92121.00
2023-03-26T05:33:46.371Z,92119.00
2023-03-26T05:37:47.362Z,92109.00
2023-03-26T05:41:48.458Z,92106.00
2023-03-26T05:45:49.639Z,92088.00
2023-03-26T05:49:50.860Z,92094.00
2023-03-26T05:53:51.974Z,92090.00
2023-03-26T05:57:53.171Z,92086.00
2023-03-26T06:01:54.368Z,92080.00
2023-03-26T06:05:55.651Z,92082.00
2023-03-26T06:09:57.182Z,92086.00
2023-03-26T06:13:58.172Z,92080.00
2023-03-26T06:17:59.272Z,92084.00
2023-03-26T06:22:00.264Z,92072.00
2023-03-26T06:26:01.478Z,92063.00
2023-03-26T06:30:02.685Z,92039.00
2023-03-26T06:34:03.797Z,92031.00
2023-03-26T06:38:04.890Z,92004.00
2023-03-26T06:42:05.833Z,91994.00
2023-03-26T06:46:06.799Z,91996.00
2023-03-26T06:50:07.709Z,91996.00
2023-03-26T06:54:08.668Z,92004.00
2023-03-26T06:58:09.570Z,91998.00
2023-03-26T07:02:10.700Z,91990.00
2023-03-26T07:06:11.358Z,91992.00
2023-03-26T07:10:12.245Z,91986.00
2023-03-26T07:14:13.178Z,91975.00
2023-03-26T07:18:14.092Z,91975.00
2023-03-26T07:22:14.951Z,91971.00
2023-03-26T07:26:15.773Z,91945.00
2023-03-26T07:30:16.587Z,91931.00
2023-03-26T07:34:17.380Z,91926.00
2023-03-26T07:38:18.503Z,91896.00
2023-03-26T07:42:19.496Z,91880.00
2023-03-26T07:46:20.330Z,91876.00
2023-03-26T07:50:21.110Z,91884.00
2023-03-26T07:54:21.870Z,91875.00
2023-03-26T07:58:22.640Z,91876.00
2023-03-26T08:02:23.422Z,91875.00
2023-03-26T08:06:24.209Z,91873.00
2023-03-26T08:10:24.926Z,91861.00
2023-03-26T08:14:25.679Z,91865.00
2023-03-26T08:18:26.467Z,91855.00
2023-03-26T08:22:27.216Z,91849.00
2023-03-26T08:26:27.969Z,91845.00
2023-03-26T08:30:28.743Z,91847.00
2023-03-26T08:34:29.508Z,91847.00
2023-03-26T08:38:30.297Z,91851.00
2023-03-26T10:18:50.765Z,91747.00
2023-03-26T10:22:51.457Z,91749.00
2023-03-26T10:27:08.958Z,91751.00
2023-03-26T11:55:09.598Z,91761.00
2023-03-26T11:59:10.314Z,91755.00
2023-03-26T12:03:11.096Z,91757.00
2023-03-26T12:07:11.822Z,91755.00
2023-03-26T12:11:12.533Z,91769.00
2023-03-26T12:15:13.256Z,91761.00
2023-03-26T12:19:13.931Z,91759.00
2023-03-26T12:23:14.770Z,91765.00
2023-03-26T12:27:15.725Z,91757.00
2023-03-26T12:31:16.506Z,91757.00
2023-03-26T12:35:17.227Z,91755.00
2023-03-26T12:40:07.726Z,91747.00
2023-03-26T12:44:49.558Z,91749.00
2023-03-26T12:47:58.716Z,91759.00
2023-03-26T12:51:21.298Z,91753.00
2023-03-26T12:55:21.090Z,91757.00
2023-03-26T12:59:21.882Z,91757.00
2023-03-26T13:03:22.794Z,91751.00
2023-03-26T13:07:23.497Z,91753.00
2023-03-26T13:11:24.296Z,91745.00
2023-03-26T13:15:25.120Z,91747.00
2023-03-26T13:19:25.933Z,91738.00
2023-03-26T13:23:26.759Z,91732.00
2023-03-26T13:27:27.617Z,91730.00
2023-03-26T13:31:28.566Z,91718.00
2023-03-26T13:35:29.478Z,91718.00
2023-03-26T13:39:30.454Z,91718.00
2023-03-26T13:43:31.407Z,91718.00
2023-03-26T13:47:32.462Z,91720.00
2023-03-26T13:51:33.470Z,91720.00
2023-03-26T13:55:34.519Z,91720.00
2023-03-26T13:59:36.307Z,91706.00
2023-03-26T14:03:36.236Z,91706.00
2023-03-26T14:07:37.027Z,91712.00
2023-03-26T14:11:37.886Z,91704.00
2023-03-26T14:15:38.584Z,91694.00
2023-03-26T14:19:39.301Z,91683.00
2023-03-26T14:23:40.299Z,91681.00
2023-03-26T14:27:40.878Z,91685.00
2023-03-26T14:31:41.902Z,91687.00
2023-03-26T14:35:42.679Z,91692.00
2023-03-26T14:39:43.455Z,91681.00
2023-03-26T14:43:44.272Z,91694.00
2023-03-26T14:47:45.190Z,91679.00
2023-03-26T14:51:45.852Z,91669.00
2023-03-26T14:55:46.648Z,91675.00
2023-03-26T14:59:47.476Z,91667.00
2023-03-26T15:03:48.310Z,91661.00
2023-03-26T15:07:49.132Z,91659.00
2023-03-26T15:11:49.950Z,91659.00
2023-03-26T15:15:54.093Z,91657.00
2023-03-26T15:19:51.609Z,91647.00
2023-03-26T15:23:52.438Z,91634.00
2023-03-26T15:27:53.285Z,91632.00
2023-03-26T15:31:54.327Z,91632.00
2023-03-26T15:35:57.428Z,91636.00
2023-03-26T15:39:59.459Z,91634.00
2023-03-26T15:44:22.604Z,91624.00
2023-03-26T15:47:58.898Z,91616.00
2023-03-26T15:51:58.789Z,91612.00
2023-03-26T15:55:59.717Z,91618.00
2023-03-26T16:00:01.044Z,91622.00
2023-03-26T16:04:02.302Z,91610.00
2023-03-26T16:08:02.651Z,91610.00
2023-03-26T16:12:03.677Z,91593.00
2023-03-26T16:16:04.754Z,91579.00
2023-03-26T16:20:05.629Z,91565.00
2023-03-26T16:24:06.423Z,91536.00
2023-03-26T16:28:07.324Z,91511.00
2023-03-26T16:32:08.267Z,91509.00
2023-03-26T16:36:09.129Z,91511.00
2023-03-26T16:40:09.980Z,91509.00
2023-03-26T16:44:11.316Z,91507.00
2023-03-26T16:48:11.670Z,91518.00
2023-03-26T16:52:12.501Z,91518.00
2023-03-26T16:56:13.366Z,91512.00
2023-03-26T17:00:14.154Z,91501.00
2023-03-26T17:04:14.965Z,91520.00
2023-03-26T17:08:15.824Z,91538.00
2023-03-26T17:12:16.560Z,91557.00
2023-03-26T17:16:17.386Z,91577.00
2023-03-26T17:20:18.235Z,91579.00
2023-03-26T17:24:19.203Z,91593.00
2023-03-26T17:28:20.286Z,91618.00
2023-03-26T17:32:21.443Z,91634.00
2023-03-26T17:36:22.350Z,91647.00
2023-03-26T17:40:23.328Z,91661.00
2023-03-26T17:44:24.201Z,91669.00
2023-03-26T17:48:25.061Z,91659.00
2023-03-26T17:52:25.942Z,91665.00
2023-03-26T17:56:26.788Z,91661.00
2023-03-26T18:00:27.748Z,91653.00
2023-03-26T18:04:28.724Z,91643.00
2023-03-26T18:08:29.706Z,91640.00
2023-03-26T18:12:30.805Z,91622.00
2023-03-26T18:16:31.940Z,91620.00
2023-03-26T18:20:32.756Z,91616.00
2023-03-26T18:24:33.704Z,91593.00
2023-03-26T18:28:34.854Z,91604.00
2023-03-26T18:32:35.657Z,91602.00
2023-03-26T18:36:36.602Z,91589.00
2023-03-26T18:40:37.534Z,91591.00
2023-03-26T18:44:38.443Z,91598.00
2023-03-26T18:48:39.393Z,91604.00
2023-03-26T18:52:40.332Z,91600.00
2023-03-26T18:56:41.263Z,91620.00
2023-03-26T19:00:42.340Z,91636.00
2023-03-26T19:04:45.428Z,91638.00
2023-03-26T19:08:44.316Z,91653.00
2023-03-26T19:12:45.149Z,91665.00
2023-03-26T19:16:46.152Z,91661.00
2023-03-26T19:20:47.013Z,91677.00
2023-03-26T19:24:47.944Z,91671.00
2023-03-26T19:28:48.840Z,91667.00
2023-03-26T19:32:49.800Z,91663.00
2023-03-26T19:36:50.664Z,91667.00
2023-03-26T19:40:51.523Z,91661.00
2023-03-26T19:44:52.412Z,91661.00
2023-03-26T19:48:53.380Z,91653.00
2023-03-26T19:52:58.548Z,91645.00
2023-03-26T19:56:56.223Z,91649.00
2023-03-26T20:00:56.417Z,91640.00
2023-03-26T20:04:57.003Z,91634.00
2023-03-26T20:08:57.929Z,91638.00
2023-03-26T20:12:58.853Z,91640.00
2023-03-26T20:16:59.871Z,91647.00
2023-03-26T20:21:00.753Z,91655.00
2023-03-26T20:25:01.746Z,91663.00
2023-03-26T20:29:04.016Z,91657.00
2023-03-26T20:33:12.648Z,91647.00
2023-03-26T20:37:05.551Z,91636.00
2023-03-26T20:41:05.392Z,91636.00
2023-03-26T20:45:06.284Z,91636.00
2023-03-26T20:49:07.227Z,91628.00
2023-03-26T20:53:08.324Z,91624.00
2023-03-26T20:57:09.386Z,91634.00
2023-03-26T21:01:10.371Z,91638.00
2023-03-26T21:05:11.875Z,91640.00
2023-03-26T21:09:12.429Z,91645.00
2023-03-26T21:13:13.370Z,91661.00
2023-03-26T21:17:14.381Z,91665.00
2023-03-26T21:21:21.203Z,91659.00
2023-03-26T21:25:17.406Z,91657.00
2023-03-26T21:29:17.236Z,91640.00
2023-03-26T21:33:18.093Z,91642.00
2023-03-26T21:37:18.998Z,91645.00
2023-03-26T21:41:19.946Z,91647.00
2023-03-26T21:45:20.909Z,91651.00
2023-03-26T21:49:21.914Z,91649.00
2023-03-26T21:53:22.905Z,91640.00
2023-03-26T21:57:23.900Z,91636.00
2023-03-26T22:01:24.938Z,91636.00
2023-03-26T22:05:25.922Z,91632.00
2023-03-26T22:09:35.712Z,91636.00
2023-03-26T22:13:28.700Z,91643.00
2023-03-26T22:17:28.903Z,91645.00
2023-03-26T22:21:29.502Z,91647.00
2023-03-26T22:25:30.576Z,91647.00
2023-03-26T22:29:31.531Z,91647.00
2023-03-26T22:33:32.470Z,91647.00
2023-03-26T22:37:33.365Z,91640.00
2023-03-26T22:41:34.889Z,91636.00
2023-03-26T22:45:35.151Z,91638.00
2023-03-26T22:49:36.027Z,91638.00
2023-03-26T22:53:36.903Z,91638.00
2023-03-26T22:57:37.766Z,91636.00
2023-03-26T23:01:38.723Z,91638.00
2023-03-26T23:05:39.543Z,91642.00
2023-03-26T23:09:40.429Z,91638.00
2023-03-26T23:13:41.296Z,91630.00
2023-03-26T23:17:42.217Z,91638.00
2023-03-26T23:21:43.084Z,91630.00
2023-03-26T23:25:43.971Z,91626.00
2023-03-26T23:29:44.863Z,91622.00
2023-03-26T23:33:45.941Z,91620.00
2023-03-26T23:37:46.661Z,91624.00
2023-03-26T23:41:47.575Z,91626.00
2023-03-26T23:45:48.491Z,91630.00
2023-03-26T23:49:49.412Z,91624.00
2023-03-26T23:53:50.507Z,91634.00
2023-03-26T23:57:51.682Z,91632.00
